createdAt,value
2023-02-13T00:00:43.940Z,4.20
2023-02-13T00:05:35.655Z,4.22
2023-02-13T00:10:27.342Z,3.55
2023-02-13T00:15:19.134Z,3.63
2023-02-13T00:20:12.520Z,3.88
2023-02-13T00:25:05.771Z,2.95
2023-02-13T00:29:57.436Z,3.05
2023-02-13T00:34:49.338Z,2.70
2023-02-13T00:39:42.099Z,3.47
2023-02-13T00:44:34.111Z,2.97
2023-02-13T00:49:26.093Z,2.85
2023-02-13T00:54:17.918Z,2.60
2023-02-13T00:59:09.636Z,2.90
2023-02-13T01:04:01.482Z,3.90
2023-02-13T01:08:53.294Z,3.38
2023-02-13T01:13:46.657Z,4.03
2023-02-13T01:18:39.059Z,4.25
2023-02-13T01:23:37.772Z,3.00
2023-02-13T01:28:29.739Z,3.05
2023-02-13T01:33:22.784Z,4.07
2023-02-13T01:38:15.428Z,3.65
2023-02-13T01:43:10.198Z,2.33
2023-02-13T01:48:09.661Z,3.38
2023-02-13T01:53:32.087Z,2.85
2023-02-13T01:58:29.208Z,2.83
2023-02-13T02:03:28.280Z,2.50
2023-02-13T02:08:20.501Z,3.00
2023-02-13T02:13:20.261Z,2.88
2023-02-13T02:18:19.917Z,2.75
2023-02-13T02:23:30.603Z,3.03
2023-02-13T02:28:50.524Z,2.88
2023-02-13T02:33:57.379Z,3.58
2023-02-13T02:39:02.964Z,3.00
2023-02-13T02:44:16.851Z,3.85
2023-02-13T02:49:33.829Z,2.65
2023-02-13T02:55:09.568Z,3.05
2023-02-13T03:00:20.331Z,2.65
2023-02-13T03:05:45.692Z,3.40
2023-02-13T03:10:58.108Z,3.05
2023-02-13T03:16:16.459Z,3.72
2023-02-13T03:21:44.920Z,3.50
2023-02-13T03:26:51.652Z,2.97
2023-02-13T03:32:03.515Z,4.93
2023-02-13T03:37:30.025Z,5.57
2023-02-13T03:42:36.013Z,4.63
2023-02-13T03:47:27.906Z,5.68
2023-02-13T03:52:26.432Z,5.18
2023-02-13T03:57:40.431Z,4.90
2023-02-13T04:02:38.287Z,6.75
2023-02-13T04:07:30.739Z,5.53
2023-02-13T04:12:36.778Z,5.43
2023-02-13T04:17:36.893Z,5.25
2023-02-13T04:22:28.644Z,4.88
2023-02-13T04:27:20.527Z,5.40
2023-02-13T04:32:13.860Z,5.90
2023-02-13T04:37:05.633Z,5.25
2023-02-13T04:41:57.737Z,5.63
2023-02-13T04:46:50.814Z,6.75
2023-02-13T04:51:42.858Z,5.78
2023-02-13T04:56:34.656Z,6.80
2023-02-13T05:01:32.529Z,6.88
2023-02-13T05:06:24.499Z,6.82
2023-02-13T05:11:16.567Z,8.20
2023-02-13T05:16:08.658Z,7.93
2023-02-13T05:21:19.105Z,7.55
2023-02-13T05:26:10.832Z,8.10
2023-02-13T05:31:02.900Z,7.47
2023-02-13T05:35:54.754Z,8.45
2023-02-13T05:40:46.448Z,7.93
2023-02-13T05:45:38.075Z,9.55
2023-02-13T05:50:29.728Z,9.55
2023-02-13T05:55:21.579Z,9.00
2023-02-13T06:00:13.921Z,9.93
2023-02-13T06:05:06.063Z,10.18
2023-02-13T06:09:59.645Z,10.70
2023-02-13T06:14:51.636Z,9.52
2023-02-13T06:19:43.438Z,11.38
2023-02-13T06:24:35.420Z,10.63
2023-02-13T06:29:27.186Z,10.27
2023-02-13T06:34:18.866Z,10.55
2023-02-13T06:39:11.377Z,10.70
2023-02-13T06:44:03.064Z,9.63
2023-02-13T06:48:54.786Z,11.20
2023-02-13T06:53:46.475Z,9.35
2023-02-13T06:58:40.151Z,10.43
2023-02-13T07:03:31.947Z,11.10
2023-02-13T07:08:23.961Z,11.15
2023-02-13T07:13:15.708Z,11.80
2023-02-13T07:18:07.496Z,10.20
2023-02-13T07:23:04.056Z,11.63
2023-02-13T07:27:56.237Z,10.85
2023-02-13T07:32:50.654Z,10.43
2023-02-13T07:37:42.400Z,11.23
2023-02-13T07:42:34.887Z,12.60
2023-02-13T07:47:26.662Z,12.65
2023-02-13T07:52:18.430Z,11.43
2023-02-13T07:57:10.211Z,11.48
2023-02-13T08:02:01.948Z,12.52
2023-02-13T08:06:53.709Z,12.07
2023-02-13T08:11:54.298Z,12.98
2023-02-13T08:16:46.185Z,13.18
2023-02-13T08:21:38.540Z,11.52
2023-02-13T08:26:31.965Z,12.73
2023-02-13T08:31:23.953Z,12.85
2023-02-13T08:36:15.826Z,12.60
2023-02-13T08:41:07.774Z,11.88
2023-02-13T08:46:01.100Z,13.05
2023-02-13T08:50:53.450Z,13.13
2023-02-13T08:55:53.521Z,12.80
2023-02-13T09:00:45.210Z,12.48
2023-02-13T09:05:36.991Z,13.07
2023-02-13T09:10:28.816Z,12.32
2023-02-13T09:15:20.720Z,14.00
2023-02-13T09:20:14.032Z,13.25
2023-02-13T09:25:06.904Z,12.40
2023-02-13T09:29:58.600Z,12.43
2023-02-13T09:34:50.309Z,12.52
2023-02-13T09:39:42.251Z,13.77
2023-02-13T09:44:43.486Z,12.95
2023-02-13T09:49:39.021Z,13.73
2023-02-13T09:54:32.297Z,12.70
2023-02-13T09:59:23.948Z,13.10
2023-02-13T10:04:52.890Z,13.40
2023-02-13T10:09:55.431Z,13.23
2023-02-13T10:15:00.380Z,12.60
2023-02-13T10:20:03.754Z,11.63
2023-02-13T10:25:01.554Z,12.07
2023-02-13T10:30:09.357Z,11.77
2023-02-13T10:35:04.235Z,13.43
2023-02-13T10:39:56.365Z,12.63
2023-02-13T10:45:30.060Z,10.77
2023-02-13T10:50:40.162Z,11.65
2023-02-13T10:55:51.492Z,11.88
2023-02-13T11:00:56.406Z,12.35
2023-02-13T11:05:49.785Z,12.52
2023-02-13T11:10:41.566Z,11.52
2023-02-13T11:15:33.504Z,11.98
2023-02-13T11:20:39.905Z,12.20
2023-02-13T11:25:31.680Z,12.13
2023-02-13T11:30:23.445Z,12.40
2023-02-13T11:35:36.618Z,12.52
2023-02-13T11:40:32.465Z,11.43
2023-02-13T11:45:26.222Z,13.15
2023-02-13T11:50:32.537Z,11.82
2023-02-13T11:55:33.632Z,10.68
2023-02-13T12:00:30.216Z,11.23
2023-02-13T12:05:24.858Z,12.00
2023-02-13T12:10:23.486Z,11.77
2023-02-13T12:15:25.565Z,12.13
2023-02-13T12:20:18.210Z,12.25
2023-02-13T12:25:19.438Z,12.20
2023-02-13T12:30:29.166Z,12.18
2023-02-13T12:35:50.295Z,11.45
2023-02-13T12:41:13.013Z,12.68
2023-02-13T12:46:50.141Z,12.18
2023-02-13T12:52:10.822Z,10.85
2023-02-13T12:57:11.039Z,11.40
2023-02-13T13:02:11.810Z,11.43
2023-02-13T13:07:37.834Z,10.15
2023-02-13T13:13:00.785Z,12.30
2023-02-13T13:18:04.510Z,12.77
2023-02-13T13:23:26.462Z,12.18
2023-02-13T13:28:26.232Z,12.75
2023-02-13T13:33:20.824Z,12.43
2023-02-13T13:38:19.626Z,12.38
2023-02-13T13:43:41.430Z,11.63
2023-02-13T13:48:54.121Z,11.25
2023-02-13T13:54:19.522Z,11.20
2023-02-13T13:59:18.456Z,11.60
2023-02-13T14:04:31.919Z,13.32
2023-02-13T14:09:27.983Z,12.30
2023-02-13T14:14:29.015Z,11.68
2023-02-13T14:19:29.571Z,12.35
2023-02-13T14:24:24.253Z,12.90
2023-02-13T14:29:18.611Z,12.38
2023-02-13T14:34:15.072Z,11.35
2023-02-13T14:39:33.595Z,11.60
2023-02-13T14:44:32.507Z,12.38
2023-02-13T14:49:37.242Z,12.25
2023-02-13T14:54:34.537Z,11.55
2023-02-13T14:59:35.277Z,11.20
2023-02-13T15:04:49.334Z,12.15
2023-02-13T15:09:48.577Z,11.50
2023-02-13T15:14:40.316Z,11.52
2023-02-13T15:19:34.609Z,11.32
2023-02-13T15:24:27.948Z,11.85
2023-02-13T15:29:29.337Z,11.23
2023-02-13T15:34:34.481Z,11.43
2023-02-13T15:39:31.378Z,11.73
2023-02-13T15:44:27.672Z,12.63
2023-02-13T15:49:25.714Z,12.35
2023-02-13T15:54:27.929Z,13.63
2023-02-13T15:59:21.447Z,11.48
2023-02-13T16:04:15.846Z,11.43
2023-02-13T16:09:07.709Z,12.40
2023-02-13T16:13:59.394Z,13.10
2023-02-13T16:18:52.344Z,12.77
2023-02-13T16:23:45.687Z,12.77
2023-02-13T16:28:37.974Z,12.32
2023-02-13T16:33:35.884Z,11.90
2023-02-13T16:38:46.269Z,14.00
2023-02-13T16:43:49.172Z,14.30
2023-02-13T16:48:59.879Z,17.63
2023-02-13T16:53:58.356Z,14.77
2023-02-13T16:58:50.445Z,13.50
2023-02-13T17:03:42.421Z,15.07
2023-02-13T17:08:34.201Z,14.88
2023-02-13T17:13:25.938Z,16.60
2023-02-13T17:18:17.925Z,15.57
2023-02-13T17:23:17.490Z,15.13
2023-02-13T17:28:15.252Z,15.73
2023-02-13T17:33:14.785Z,14.63
2023-02-13T17:38:08.404Z,16.40
2023-02-13T17:43:00.378Z,17.02
2023-02-13T17:47:52.108Z,16.20
2023-02-13T17:52:45.978Z,18.05
2023-02-13T17:57:37.696Z,16.52
2023-02-13T18:02:29.461Z,14.90
2023-02-13T18:07:21.818Z,16.80
2023-02-13T18:12:20.008Z,17.83
2023-02-13T18:22:04.949Z,16.75
2023-02-13T18:26:56.867Z,17.45
2023-02-13T18:31:51.270Z,19.75
2023-02-13T18:36:43.139Z,18.65
2023-02-13T18:41:34.922Z,18.58
2023-02-13T18:46:26.740Z,20.05
2023-02-13T18:51:18.658Z,18.67
2023-02-13T18:56:12.082Z,19.45
2023-02-13T19:01:12.615Z,20.23
2023-02-13T19:06:09.492Z,19.15
2023-02-13T19:11:05.037Z,19.17
2023-02-13T19:15:56.846Z,18.65
2023-02-13T19:20:48.565Z,18.45
2023-02-13T19:25:40.236Z,21.15
2023-02-13T19:30:32.017Z,21.13
2023-02-13T19:35:24.693Z,19.85
2023-02-13T19:40:16.441Z,19.15
2023-02-13T19:45:08.634Z,20.67
2023-02-13T19:50:00.468Z,20.67
2023-02-13T19:54:54.195Z,20.10
2023-02-13T19:59:45.919Z,18.70
2023-02-13T20:04:39.349Z,18.65
2023-02-13T20:09:31.138Z,18.83
2023-02-13T20:14:22.818Z,19.13
2023-02-13T20:19:14.822Z,21.73
2023-02-13T20:24:06.896Z,20.83
2023-02-13T20:28:59.741Z,18.92
2023-02-13T20:33:52.540Z,19.30
2023-02-13T20:38:45.115Z,19.45
2023-02-13T20:43:37.432Z,19.40
2023-02-13T20:48:29.271Z,19.98
2023-02-13T20:53:21.432Z,20.33
2023-02-13T20:58:13.222Z,21.45
2023-02-13T21:03:05.057Z,20.65
2023-02-13T21:07:57.002Z,20.58
2023-02-13T21:12:48.672Z,19.38
2023-02-13T21:17:41.926Z,22.30
2023-02-13T21:22:35.093Z,20.48
2023-02-13T21:27:28.496Z,20.50
2023-02-13T21:32:20.987Z,21.58
2023-02-13T21:37:12.724Z,22.40
2023-02-13T21:42:04.971Z,20.95
2023-02-13T21:46:56.746Z,22.15
2023-02-13T21:51:48.541Z,22.20
2023-02-13T21:56:42.455Z,20.38
2023-02-13T22:01:37.574Z,20.42
2023-02-13T22:06:31.731Z,21.27
2023-02-13T22:11:24.173Z,20.67
2023-02-13T22:16:16.038Z,21.30
2023-02-13T22:21:09.983Z,20.42
2023-02-13T22:26:02.354Z,23.17
2023-02-13T22:30:55.001Z,23.55
2023-02-13T22:35:46.861Z,23.30
2023-02-13T22:40:39.056Z,22.67
2023-02-13T22:45:31.411Z,22.70
2023-02-13T22:50:23.077Z,23.42
2023-02-13T22:55:14.856Z,23.27
2023-02-13T23:00:09.321Z,22.58
2023-02-13T23:05:01.136Z,23.95
2023-02-13T23:09:52.913Z,23.15
2023-02-13T23:14:44.554Z,23.45
2023-02-13T23:19:36.501Z,24.90
2023-02-13T23:24:31.323Z,23.45
2023-02-13T23:29:23.072Z,24.00
2023-02-13T23:34:14.908Z,24.10
2023-02-13T23:39:08.392Z,23.85
2023-02-13T23:44:00.137Z,24.30
2023-02-13T23:48:51.791Z,25.70
2023-02-13T23:53:43.489Z,24.85
2023-02-13T23:58:35.262Z,24.75
